Alpha, California Weather observations

Data are for observation ending at time listed.
 Day   Time    Ave.   Ave.  Ave.  Vector   Max.   Stn.    Total    Solar   Ave.   Snow 
  of    of     Air    Rel.  Wind   Wind    Wind   Baro.  Precip.   Rad.    Soil   Depth
Year   Day     Temp.  Hum.  Speed  Dir.    Gust   Pres.                    Temp.       
2014   (PST)    F      %     mph   deg.    mph     mb.     in.     W/m2     F      in. 
---------------------------------------------------------------------------------------  
 325   12:40   35.9    67    1.3   270      4.7   784.1    0.00     289    999.0  161.6
 325   12:50   36.3    65    1.3   292      3.1   784.1    0.00     324    999.0  160.0
 325   13:00   36.8    63    1.5   264      5.4   784.1    0.00     288    999.0  157.9
 325   13:10   36.4    61    1.9   257      5.0   784.1    0.00     350    999.0  158.0
 325   13:20   37.2    63    1.2   290      2.9   784.2    0.00     255    999.0  157.9
 325   13:30   36.9    63    1.2   294      2.8   784.2    0.00     294    999.0  161.5
 325   13:40   37.7    65    0.8   300      3.1   784.3    0.00     259    999.0  160.6
 325   13:50   37.5    65    1.1   235      3.7   784.1    0.00     201    999.0  161.1
 325   14:00   37.0    68    1.9   222      6.4   784.1    0.00     176    999.0  162.0
 325   14:10   36.2    70    1.4   217      4.5   784.1    0.00     116    999.0  131.3
 325   14:20   35.9    69    1.5   239      3.4   784.1    0.00     130    999.0   13.0
 325   14:30   35.9    74    1.4   248      3.5   784.3    0.00     165    999.0   13.6
 325   14:40   36.6    75    1.8   220      6.2   784.3    0.00     142    999.0   13.4
 325   14:50   36.2    75    2.6   205      6.4   784.4    0.00     134    999.0   14.4
 325   15:00   35.8    80    2.8   193      5.7   784.5    0.00      89    999.0   13.4
 325   15:10   35.3    83    2.4   201      4.7   784.4    0.00      58    999.0   14.1
 325   15:20   34.9    87    1.7   229      3.9   784.6    0.00      46    999.0   14.5
 325   15:30   34.8    88    1.1   233      3.1   784.6    0.00      40    999.0   14.2
 325   15:40   34.5    90    1.4   264      2.6   784.7    0.00      29    999.0   14.0
 325   15:50   34.1    91    1.2   274      2.3   784.8    0.00      22    999.0   13.2
 325   16:00   33.8    92    1.4   252      3.6   784.8    0.00      20    999.0   12.9
 325   16:10   33.7    92    2.0   242      4.2   784.8    0.00      14    999.0   12.7
 325   16:20   33.5    92    1.8   242      3.9   784.8    0.00       7    999.0   11.4
 325   16:30   33.4    93    1.4   255      3.8   784.9    0.00       3    999.0   11.6
 325   16:40   33.3    94    1.7   267      5.4   785.0    0.00       1    999.0   14.6
 325   16:50   33.2    94    2.1   257      5.9   785.0    0.00       0    999.0   14.7
 325   17:00   33.0    95    2.0   261      4.9   785.2    0.00       0    999.0   14.6
 325   17:10   32.7    95    1.7   270      5.8   785.3    0.00       0    999.0   14.6
 325   17:20   32.0    92    1.8   275      5.1   785.4    0.00       0    999.0   14.4
 325   17:30   31.3    87    0.8   287      2.4   785.4    0.00       0    999.0   14.7
 325   17:40   31.0    90    1.1   234      4.0   785.5    0.00       0    999.0   14.8
 325   17:50   30.7    92    1.4   208      3.6   785.5    0.00       0    999.0   14.8
 325   18:00   30.6    93    2.1   175      5.4   785.6    0.00       0    999.0   14.7
 325   18:10   30.4    93    2.1   130      4.3   785.6    0.00       0    999.0   14.6
 325   18:20   30.2    94    4.2   133      7.1   785.6    0.00       0    999.0   14.6
 325   18:30   30.2    94    3.8   117      5.6   785.5    0.00       0    999.0   14.6
 325   18:40   30.2    94    4.0   101      6.1   785.5    0.00       0    999.0   14.6
 325   18:50   30.4    93    4.9    96      6.9   785.4    0.00       0    999.0   14.5
 325   19:00   30.6    92    4.5    96      6.6   785.3    0.00       0    999.0   14.5
 325   19:10   31.0    92    2.5    99      4.6   785.4    0.00       0    999.0   14.5
 325   19:20   31.6    91    0.9   105      3.2   785.5    0.00       0    999.0   14.5
 325   19:30   32.3    91    1.2   238      3.0   785.5    0.00       0    999.0   14.2
 325   19:40   32.9    91    1.7   240      4.3   785.6    0.00       0    999.0   14.4
 325   19:50   33.2    90    2.9   228      4.8   785.7    0.00       0    999.0   14.3
 325   20:00   33.3    90    2.3   216      4.2   785.8    0.00       0    999.0   14.3
 325   20:10   33.3    90    2.1   221      3.9   786.0    0.00       0    999.0   14.2
 325   20:20   33.1    92    2.7   238      5.4   786.0    0.00       0    999.0   14.1
 325   20:30   32.8    93    1.5   272      3.4   786.1    0.00       0    999.0   14.0
 325   20:40   32.6    94    1.4   269      4.4   786.0    0.00       0    999.0   13.9
 325   20:50   32.6    94    1.6   256      4.5   786.0    0.00       0    999.0   13.9
 325   21:00   32.6    94    1.6   235      3.7   785.9    0.00       0    999.0   13.5
 325   21:10   32.5    94    2.0   215      4.2   785.8    0.00       0    999.0   12.2
 325   21:20   32.4    95    1.7   216      3.1   785.8    0.00       0    999.0   12.3
 325   21:30   32.6    95    2.3   224      4.7   785.9    0.00       0    999.0   12.1
 325   21:40   32.8    95    1.9   212      5.9   785.9    0.00       0    999.0   13.1
 325   21:50   32.7    95    3.2   196      5.8   785.9    0.00       0    999.0   13.7
 325   22:00   32.7    95    4.5   182      7.6   785.8    0.00       0    999.0   14.5
 325   22:10   32.8    95    4.9   188      8.2   785.7    0.00       0    999.0   14.7
 325   22:20   32.9    95    3.6   202      7.2   785.8    0.00       0    999.0   14.9
 325   22:30   33.2    96    3.2   231      6.9   786.1    0.00       0    999.0   15.0
 325   22:40   33.3    96    2.3   264      6.6   786.3    0.00       0    999.0   15.0
 325   22:50   33.1    96    2.6   273      5.4   786.4    0.00       0    999.0   15.2
 325   23:00   33.0    96    2.2   282      5.0   786.5    0.00       0    999.0   15.1
 325   23:10   32.9    96    2.1   279      4.7   786.6    0.00       0    999.0   15.1
 325   23:20   33.0    96    2.6   269      6.3   786.6    0.00       0    999.0   15.1
 325   23:30   32.8    96    1.6   295      4.4   786.8    0.00       0    999.0   15.0
 325   23:40   32.8    96    2.2   256      7.2   786.7    0.00       0    999.0   15.1
 325   23:50   33.0    96    2.3   222      5.1   786.5    0.00       0    999.0   15.2
 326    0:00   33.2    96    2.8   210      5.9   786.5    0.00       0    999.0   15.2
 326    0:10   33.3    96    5.4   182      8.3   786.3    0.00       0    999.0   15.1
 326    0:20   33.6    96    4.8   182      8.0   786.2    0.00       0    999.0   15.1
 326    0:30   33.9    96    2.4   215      6.0   786.3    0.00       0    999.0   15.1
 326    0:40   34.1    96    2.2   219      5.0   786.4    0.00       0    999.0   15.3
 326    0:50   34.4    96    2.8   219      8.6   786.3    0.00       0    999.0   15.1
 326    1:00   34.5    96    2.5   218      6.5   786.2    0.00       0    999.0   14.6
 326    1:10   34.5    96    3.3   222      6.4   786.3    0.00       0    999.0   14.7
 326    1:20   34.5    96    3.0   220      7.2   786.3    0.00       0    999.0   14.7
 326    1:30   34.6    96    2.9   233      7.7   786.4    0.00       0    999.0   14.6
 326    1:40   34.6    96    2.6   210      6.6   786.2    0.00       0    999.0   14.6
 326    1:50   34.4    96    2.1   209      4.9   786.2    0.00       0    999.0   14.6
 326    2:00   34.5    96    2.5   226      5.8   786.3    0.00       0    999.0   14.4
 326    2:10   34.4    96    2.4   205      5.1   786.1    0.00       0    999.0   14.4
 326    2:20   34.5    96    2.5   233      6.5   786.2    0.00       0    999.0   11.4
 326    2:30   34.8    96    2.8   222      6.6   786.2    0.00       0    999.0   11.9
 326    2:40   35.2    96    2.7   225      6.4   786.1    0.00       0    999.0   11.7
 326    2:50   35.4    96    2.6   226      8.5   786.1    0.00       0    999.0   12.5
 326    3:00   35.5    96    2.3   232      8.3   786.1    0.00       0    999.0   13.2
 326    3:10   35.5    96    2.5   224      7.1   786.0    0.00       0    999.0   13.3
 326    3:20   35.5    96    4.0   193     10.4   785.8    0.00       0    999.0   12.9
 326    3:30   35.6    96    6.1   181     11.0   785.5    0.00       0    999.0   12.3
 326    3:40   35.8    96    5.8   184     10.5   785.3    0.00       0    999.0   12.4
 326    3:50   35.9    96    6.3   184     14.0   785.2    0.00       0    999.0   12.5
 326    4:00   36.0    96    5.5   186      9.8   785.1    0.00       0    999.0   12.4
 326    4:10   36.1    96    4.8   187     13.8   784.9    0.00       0    999.0   12.2
 326    4:20   36.4    96    4.8   190     11.6   784.9    0.00       0    999.0   13.3
 326    4:30   36.4    96    3.0   226     10.2   785.0    0.00       0    999.0   14.1
 326    4:40   36.7    96    4.4   218     11.6   785.0    0.00       0    999.0   14.2
 326    4:50   36.8    96    4.9   204     16.9   784.9    0.00       0    999.0   14.2
 326    5:00   36.8    96    5.2   200     12.4   784.7    0.00       0    999.0   14.3
 326    5:10   36.7    96    6.9   189     13.7   784.5    0.00       0    999.0   14.2
 326    5:20   36.7    96    5.4   194     12.9   784.6    0.00       0    999.0   14.1
 326    5:30   36.8    96    5.4   196     12.9   784.5    0.00       0    999.0   12.7
 326    5:40   36.9    96    6.3   191     14.0   784.4    0.00       0    999.0   12.5
 326    5:50   37.0    96    7.0   189     18.2   784.3    0.00       0    999.0   13.7
 326    6:00   37.0    96    6.3   191     16.9   784.4    0.00       0    999.0   13.8
 326    6:10   36.9    96    8.0   186     17.5   784.2    0.00       0    999.0   13.8
 326    6:20   36.9    96    6.3   190     15.3   784.1    0.00       0    999.0   13.0
 326    6:30   36.8    96    5.8   210     15.3   784.3    0.00       0    999.0   13.0
 326    6:40   36.9    96    5.0   215     14.8   784.2    0.00       0    999.0   12.5
 326    6:50   36.8    96    5.4   216     11.8   784.4    0.00       0    999.0   13.1
 326    7:00   36.7    96    8.3   209     21.3   784.5    0.00       1    999.0   13.7
 326    7:10   36.8    96    7.4   215     20.1   784.4    0.00       1    999.0   13.7
 326    7:20   36.7    96    5.2   216     15.7   784.4    0.00       1    999.0   13.7
 326    7:30   36.6    96    4.5   234     13.8   784.3    0.00       3    999.0   12.6
 326    7:40   36.6    96    4.6   250     14.0   784.5    0.00       1    999.0   11.7
 326    7:50   36.6    96    5.1   241     16.3   784.5    0.00       3    999.0   12.3
 326    8:00   36.7    96    4.4   226     12.0   784.6    0.00       2    999.0   12.5
 326    8:10   36.6    96    4.3   240     15.9   784.6    0.00       5    999.0   12.1
 326    8:20   36.7    96    5.1   236     15.4   784.6    0.00      15    999.0   12.2
 326    8:30   37.0    96    5.4   238     14.8   784.7    0.00      22    999.0   12.4
 326    8:40   37.0    96    6.1   243     14.5   784.7    0.00      27    999.0   12.0
 326    8:50   37.1    96    5.5   239     14.9   784.7    0.00      29    999.0   12.3
 326    9:00   37.3    96    5.3   235     12.5   784.5    0.00      23    999.0   13.2
 326    9:10   37.3    96    6.5   243     15.2   784.8    0.00      32    999.0   12.7
 326    9:20   37.5    96    6.0   243     16.1   785.0    0.00      66    999.0   12.6
 326    9:30   37.6    96    6.2   244     17.2   784.9    0.00      68    999.0   12.3
 326    9:40   37.9    96    5.6   251     14.4   785.0    0.00     100    999.0   12.6
 326    9:50   38.0    96    5.7   247     19.2   784.9    0.00      69    999.0   13.0
 326   10:00   37.8    96    6.1   256     15.0   784.9    0.00      51    999.0   13.2
 326   10:10   37.5    96    5.7   265     12.4   785.1    0.00      30    999.0   13.6
 326   10:20   37.7    96    5.5   263     16.4   785.3    0.00      57    999.0   13.4
 326   10:30   37.7    96    5.4   265     13.0   785.4    0.00      54    999.0   13.4
 326   10:40   38.0    96    5.4   265     15.9   785.3    0.00      70    999.0   13.2
 326   10:50   38.1    96    4.8   277     12.4   785.2    0.00      61    999.0   13.2
 326   11:00   38.1    96    4.6   285     13.8   785.2    0.00      70    999.0   13.1
 326   11:10   38.2    96    5.3   274     12.8   785.2    0.00      67    999.0   13.2
 326   11:20   38.2    96    5.0   285     14.9   785.0    0.00      64    999.0   13.2
 326   11:30   38.2    96    6.1   267     15.2   784.9    0.00     109    999.0   13.2
 326   11:40   38.1    96    5.0   274     12.1   784.8    0.00      77    999.0   13.1
 326   11:50   38.1    96    5.1   273     13.5   784.9    0.00     136    999.0   13.3
 326   12:00   38.2    96    5.8   272     15.5   784.7    0.00     125    999.0   13.2
 326   12:10   37.7    96    5.8   276     12.9   784.6    0.00      73    999.0   13.0
 326   12:20   37.4    96    5.2   282     12.4   784.8    0.00      50    999.0   13.3
 326   12:30   37.2    96    5.4   265     12.3   785.0    0.00      98    999.0   13.1

Return to Alpha graphs page.


Western Regional Climate Center,wrcc@dri.edu